Aegean Viii — SXKO — position and weather

sailwx.info

Track history (hours):
 
Tides and Currents Weather Stations Pressure Air Temp Water Temp Dewpoint Dewpoint Depression Visibility Wind Speed Wind Dir Waves Ship Positions

Aegean Viii

Last reported at 2014-Nov-28 13:33 UTC. Time now 2014-Nov-29 06:15 UTC.
Position N 37°57' E 023°34'.

Length 75 m; draft 4.5 m.

Type: Tanker. MMSI: 240732000.

Date/timePositionNaut miles runAvg speedWind from/ knotsBaromVisibWave heightAir tempDewpointWater temp
2014-Nov-28 13:33N 37°57' E 023°34'3 3.5
2014-Nov-28 12:33N 37°56' E 023°38'0 0.0
2014-Nov-28 11:33N 37°56' E 023°38'0 0.0
2014-Nov-28 10:33N 37°56' E 023°38'0 0.0
2014-Nov-28 09:33N 37°56' E 023°38'0 0.0
2014-Nov-28 08:21N 37°56' E 023°38'0 0.0
2014-Nov-28 07:33N 37°56' E 023°38'1 1.2
2014-Nov-28 06:34N 37°56' E 023°37'5 5.1
2014-Nov-28 05:33N 38°00' E 023°33'2 1.8
2014-Nov-28 04:34N 38°02' E 023°32'0 0.0
2014-Nov-28 03:34N 38°02' E 023°32'0 0.0
2014-Nov-27 13:33N 38°02' E 023°32'0 0.0
2014-Nov-27 12:34N 38°02' E 023°32'0 0.0
2014-Nov-27 11:33N 38°02' E 023°32'0 0.0
2014-Nov-27 10:33N 38°02' E 023°32'0 0.0
2014-Nov-27 09:33N 38°02' E 023°32'0 0.0
2014-Nov-27 08:33N 38°02' E 023°32'0 0.0
2014-Nov-27 07:33N 38°02' E 023°32'0 0.0
2014-Nov-27 06:33N 38°02' E 023°32'0 0.0
2014-Nov-27 05:34N 38°02' E 023°32'0 0.0
2014-Nov-26 12:33N 38°02' E 023°32'3 3.0
2014-Nov-26 11:33N 38°02' E 023°36'0 0.0
2014-Nov-26 10:33N 38°02' E 023°36'0 0.0
2014-Nov-26 09:33N 38°02' E 023°36'0 0.0
2014-Nov-26 08:33N 38°02' E 023°36'0 0.0
2014-Nov-26 07:33N 38°02' E 023°36'0 0.0
2014-Nov-26 06:33N 38°02' E 023°36'1 0.7
2014-Nov-26 05:33N 38°02' E 023°35'0 0.0
2014-Nov-26 04:33N 38°02' E 023°35'2 2.2
2014-Nov-26 03:33N 38°02' E 023°32'0 0.0
2014-Nov-25 09:33N 38°02' E 023°32'6 6.2
2014-Nov-25 08:33N 37°57' E 023°36'0 0.0
2014-Nov-25 07:33N 37°57' E 023°36'0 0.0
2014-Nov-25 06:33N 37°57' E 023°36'5 5.4
2014-Nov-25 05:33N 38°01' E 023°32'1 0.9
2014-Nov-25 04:33N 38°02' E 023°32'0 0.0
2014-Nov-25 03:33N 38°02' E 023°32'0 0.0
2014-Nov-25 02:33N 38°02' E 023°32'0 0.0
2014-Nov-24 17:03N 38°02' E 023°32'0 0.4
2014-Nov-24 16:34N 38°02' E 023°32'7 6.9
2014-Nov-24 15:33N 37°55' E 023°33'1 0.9
2014-Nov-24 14:33N 37°56' E 023°34'6 6.0
2014-Nov-24 13:33N 38°02' E 023°36'0 0.0
2014-Nov-24 12:33N 38°02' E 023°36'0 0.0
2014-Nov-24 11:33N 38°02' E 023°36'1 0.7
2014-Nov-24 10:33N 38°02' E 023°35'0 0.1
2014-Nov-24 09:33N 38°02' E 023°35'2 2.3
2014-Nov-24 08:33N 38°02' E 023°32'0 0.0
2014-Nov-24 07:33N 38°02' E 023°32'0 0.0
2014-Nov-24 06:33N 38°02' E 023°32'0 0.0
2014-Nov-24 05:32N 38°02' E 023°32'0 0.0
2014-Nov-22 13:33N 38°02' E 023°32'6 5.6
2014-Nov-22 12:33N 37°57' E 023°35'7 6.5
2014-Nov-22 11:33N 37°51' E 023°32'0 0.0
2014-Nov-22 10:33N 37°51' E 023°32'0 0.0
2014-Nov-22 09:33N 37°51' E 023°32'0 0.0
2014-Nov-22 08:33N 37°51' E 023°32'0 0.0
2014-Nov-22 07:33N 37°51' E 023°32'0 0.0
2014-Nov-22 06:34N 37°51' E 023°32'6 5.9
2014-Nov-22 05:33N 37°56' E 023°35'6 6.3
2014-Nov-22 04:33N 38°02' E 023°32'0 0.0
2014-Nov-22 03:33N 38°02' E 023°32'0 0.0
2014-Nov-21 12:30N 38°02' E 023°32'0 0.0
2014-Nov-21 11:33N 38°02' E 023°32'0 0.0
2014-Nov-21 10:33N 38°02' E 023°32'0 0.0
2014-Nov-21 09:33N 38°02' E 023°32'0 0.0
2014-Nov-21 08:33N 38°02' E 023°32'0 0.0
2014-Nov-21 07:33N 38°02' E 023°32'0 0.0
2014-Nov-21 06:33N 38°02' E 023°32'0 0.0
2014-Nov-21 05:32N 38°02' E 023°32'0 0.0
2014-Nov-20 11:33N 38°02' E 023°32'0 0.0
2014-Nov-20 10:33N 38°02' E 023°32'3 2.6
2014-Nov-20 09:33N 38°02' E 023°35'0 0.0
2014-Nov-20 08:33N 38°02' E 023°35'3 3.1
2014-Nov-20 07:33N 37°59' E 023°33'3 2.5
2014-Nov-20 06:33N 37°57' E 023°34'2 1.6
2014-Nov-20 05:33N 37°55' E 023°34'3 3.5
2014-Nov-20 04:33N 37°52' E 023°33'0 0.0
2014-Nov-20 03:33N 37°52' E 023°33'0 0.0
2014-Nov-20 02:33N 37°52' E 023°33'0 0.1
2014-Nov-20 01:33N 37°52' E 023°33'0 0.0
2014-Nov-20 00:33N 37°52' E 023°33'0 0.0
2014-Nov-19 23:33N 37°52' E 023°33'5 4.6
2014-Nov-19 22:33N 37°57' E 023°35'1 0.9
2014-Nov-19 21:33N 37°57' E 023°35'0 0.0
2014-Nov-19 20:34N 37°57' E 023°35'0 0.0
2014-Nov-19 19:34N 37°57' E 023°35'0 0.0
2014-Nov-19 18:34N 37°57' E 023°35'0 0.0
2014-Nov-19 17:33N 37°57' E 023°35'0 0.1
2014-Nov-19 16:33N 37°57' E 023°34'0 0.0
2014-Nov-19 15:33N 37°57' E 023°34'0 0.0
2014-Nov-19 14:33N 37°57' E 023°34'0 0.0
2014-Nov-19 13:33N 37°57' E 023°34'0 0.0
2014-Nov-19 12:33N 37°57' E 023°34'0 0.0
2014-Nov-19 11:33N 37°57' E 023°34'2 1.6
2014-Nov-19 10:33N 37°58' E 023°36'0 0.0
2014-Nov-19 09:33N 37°58' E 023°36'0 0.0
2014-Nov-19 08:33N 37°58' E 023°36'5 5.3
2014-Nov-19 07:33N 38°02' E 023°32'1 0.7
2014-Nov-19 06:33N 38°02' E 023°32'0 0.0
2014-Nov-19 05:33N 38°02' E 023°32'0 0.0
2014-Nov-19 04:33N 38°02' E 023°32'0 0.0
2014-Nov-19 03:33N 38°02' E 023°32'0 0.0
2014-Nov-19 02:33N 38°02' E 023°32'0 0.0
2014-Nov-19 00:33N 38°02' E 023°32'3 3.0
2014-Nov-18 23:33N 38°02' E 023°36'0 0.0
2014-Nov-18 22:19N 38°02' E 023°36'0 0.0
2014-Nov-18 21:33N 38°02' E 023°36'0 0.0
2014-Nov-18 20:31N 38°02' E 023°36'0 0.0
2014-Nov-18 19:20N 38°02' E 023°36'0 0.0
2014-Nov-18 18:33N 38°02' E 023°36'0 0.0
2014-Nov-18 17:33N 38°02' E 023°36'0 0.0
2014-Nov-18 16:33N 38°02' E 023°36'0 0.0
2014-Nov-18 15:33N 38°02' E 023°36'0 0.0
2014-Nov-18 14:33N 38°02' E 023°36'  
Track history (hours):
 
Tides and Currents Weather Stations Pressure Air Temp Water Temp Dewpoint Dewpoint Depression Visibility Wind Speed Wind Dir Waves Ship Positions

Aegean Viii

Last reported at 2014-Nov-28 13:33 UTC. Time now 2014-Nov-29 06:15 UTC.
Position N 37°57' E 023°34'.

Length 75 m; draft 4.5 m.

Type: Tanker. MMSI: 240732000.

Date/timePositionNaut miles runAvg speedWind from/ knotsBaromVisibWave heightAir tempDewpointWater temp
2014-Nov-28 13:33N 37°57' E 023°34'3 3.5
2014-Nov-28 12:33N 37°56' E 023°38'0 0.0
2014-Nov-28 11:33N 37°56' E 023°38'0 0.0
2014-Nov-28 10:33N 37°56' E 023°38'0 0.0
2014-Nov-28 09:33N 37°56' E 023°38'0 0.0
2014-Nov-28 08:21N 37°56' E 023°38'0 0.0
2014-Nov-28 07:33N 37°56' E 023°38'1 1.2
2014-Nov-28 06:34N 37°56' E 023°37'5 5.1
2014-Nov-28 05:33N 38°00' E 023°33'2 1.8
2014-Nov-28 04:34N 38°02' E 023°32'0 0.0
2014-Nov-28 03:34N 38°02' E 023°32'0 0.0
2014-Nov-27 13:33N 38°02' E 023°32'0 0.0
2014-Nov-27 12:34N 38°02' E 023°32'0 0.0
2014-Nov-27 11:33N 38°02' E 023°32'0 0.0
2014-Nov-27 10:33N 38°02' E 023°32'0 0.0
2014-Nov-27 09:33N 38°02' E 023°32'0 0.0
2014-Nov-27 08:33N 38°02' E 023°32'0 0.0
2014-Nov-27 07:33N 38°02' E 023°32'0 0.0
2014-Nov-27 06:33N 38°02' E 023°32'0 0.0
2014-Nov-27 05:34N 38°02' E 023°32'0 0.0
2014-Nov-26 12:33N 38°02' E 023°32'3 3.0
2014-Nov-26 11:33N 38°02' E 023°36'0 0.0
2014-Nov-26 10:33N 38°02' E 023°36'0 0.0
2014-Nov-26 09:33N 38°02' E 023°36'0 0.0
2014-Nov-26 08:33N 38°02' E 023°36'0 0.0
2014-Nov-26 07:33N 38°02' E 023°36'0 0.0
2014-Nov-26 06:33N 38°02' E 023°36'1 0.7
2014-Nov-26 05:33N 38°02' E 023°35'0 0.0
2014-Nov-26 04:33N 38°02' E 023°35'2 2.2
2014-Nov-26 03:33N 38°02' E 023°32'0 0.0
2014-Nov-25 09:33N 38°02' E 023°32'6 6.2
2014-Nov-25 08:33N 37°57' E 023°36'0 0.0
2014-Nov-25 07:33N 37°57' E 023°36'0 0.0
2014-Nov-25 06:33N 37°57' E 023°36'5 5.4
2014-Nov-25 05:33N 38°01' E 023°32'1 0.9
2014-Nov-25 04:33N 38°02' E 023°32'0 0.0
2014-Nov-25 03:33N 38°02' E 023°32'0 0.0
2014-Nov-25 02:33N 38°02' E 023°32'0 0.0
2014-Nov-24 17:03N 38°02' E 023°32'0 0.4
2014-Nov-24 16:34N 38°02' E 023°32'7 6.9
2014-Nov-24 15:33N 37°55' E 023°33'1 0.9
2014-Nov-24 14:33N 37°56' E 023°34'6 6.0
2014-Nov-24 13:33N 38°02' E 023°36'0 0.0
2014-Nov-24 12:33N 38°02' E 023°36'0 0.0
2014-Nov-24 11:33N 38°02' E 023°36'1 0.7
2014-Nov-24 10:33N 38°02' E 023°35'0 0.1
2014-Nov-24 09:33N 38°02' E 023°35'2 2.3
2014-Nov-24 08:33N 38°02' E 023°32'0 0.0
2014-Nov-24 07:33N 38°02' E 023°32'0 0.0
2014-Nov-24 06:33N 38°02' E 023°32'0 0.0
2014-Nov-24 05:32N 38°02' E 023°32'0 0.0
2014-Nov-22 13:33N 38°02' E 023°32'6 5.6
2014-Nov-22 12:33N 37°57' E 023°35'7 6.5
2014-Nov-22 11:33N 37°51' E 023°32'0 0.0
2014-Nov-22 10:33N 37°51' E 023°32'0 0.0
2014-Nov-22 09:33N 37°51' E 023°32'0 0.0
2014-Nov-22 08:33N 37°51' E 023°32'0 0.0
2014-Nov-22 07:33N 37°51' E 023°32'0 0.0
2014-Nov-22 06:34N 37°51' E 023°32'6 5.9
2014-Nov-22 05:33N 37°56' E 023°35'6 6.3
2014-Nov-22 04:33N 38°02' E 023°32'0 0.0
2014-Nov-22 03:33N 38°02' E 023°32'0 0.0
2014-Nov-21 12:30N 38°02' E 023°32'0 0.0
2014-Nov-21 11:33N 38°02' E 023°32'0 0.0
2014-Nov-21 10:33N 38°02' E 023°32'0 0.0
2014-Nov-21 09:33N 38°02' E 023°32'0 0.0
2014-Nov-21 08:33N 38°02' E 023°32'0 0.0
2014-Nov-21 07:33N 38°02' E 023°32'0 0.0
2014-Nov-21 06:33N 38°02' E 023°32'0 0.0
2014-Nov-21 05:32N 38°02' E 023°32'0 0.0
2014-Nov-20 11:33N 38°02' E 023°32'0 0.0
2014-Nov-20 10:33N 38°02' E 023°32'3 2.6
2014-Nov-20 09:33N 38°02' E 023°35'0 0.0
2014-Nov-20 08:33N 38°02' E 023°35'3 3.1
2014-Nov-20 07:33N 37°59' E 023°33'3 2.5
2014-Nov-20 06:33N 37°57' E 023°34'2 1.6
2014-Nov-20 05:33N 37°55' E 023°34'3 3.5
2014-Nov-20 04:33N 37°52' E 023°33'0 0.0
2014-Nov-20 03:33N 37°52' E 023°33'0 0.0
2014-Nov-20 02:33N 37°52' E 023°33'0 0.1
2014-Nov-20 01:33N 37°52' E 023°33'0 0.0
2014-Nov-20 00:33N 37°52' E 023°33'0 0.0
2014-Nov-19 23:33N 37°52' E 023°33'5 4.6
2014-Nov-19 22:33N 37°57' E 023°35'1 0.9
2014-Nov-19 21:33N 37°57' E 023°35'0 0.0
2014-Nov-19 20:34N 37°57' E 023°35'0 0.0
2014-Nov-19 19:34N 37°57' E 023°35'0 0.0
2014-Nov-19 18:34N 37°57' E 023°35'0 0.0
2014-Nov-19 17:33N 37°57' E 023°35'0 0.1
2014-Nov-19 16:33N 37°57' E 023°34'0 0.0
2014-Nov-19 15:33N 37°57' E 023°34'0 0.0
2014-Nov-19 14:33N 37°57' E 023°34'0 0.0
2014-Nov-19 13:33N 37°57' E 023°34'0 0.0
2014-Nov-19 12:33N 37°57' E 023°34'0 0.0
2014-Nov-19 11:33N 37°57' E 023°34'2 1.6
2014-Nov-19 10:33N 37°58' E 023°36'0 0.0
2014-Nov-19 09:33N 37°58' E 023°36'0 0.0
2014-Nov-19 08:33N 37°58' E 023°36'5 5.3
2014-Nov-19 07:33N 38°02' E 023°32'1 0.7
2014-Nov-19 06:33N 38°02' E 023°32'0 0.0
2014-Nov-19 05:33N 38°02' E 023°32'0 0.0
2014-Nov-19 04:33N 38°02' E 023°32'0 0.0
2014-Nov-19 03:33N 38°02' E 023°32'0 0.0
2014-Nov-19 02:33N 38°02' E 023°32'0 0.0
2014-Nov-19 00:33N 38°02' E 023°32'3 3.0
2014-Nov-18 23:33N 38°02' E 023°36'0 0.0
2014-Nov-18 22:19N 38°02' E 023°36'0 0.0
2014-Nov-18 21:33N 38°02' E 023°36'0 0.0
2014-Nov-18 20:31N 38°02' E 023°36'0 0.0
2014-Nov-18 19:20N 38°02' E 023°36'0 0.0
2014-Nov-18 18:33N 38°02' E 023°36'0 0.0
2014-Nov-18 17:33N 38°02' E 023°36'0 0.0
2014-Nov-18 16:33N 38°02' E 023°36'0 0.0
2014-Nov-18 15:33N 38°02' E 023°36'0 0.0
2014-Nov-18 14:33N 38°02' E 023°36'  

Dump ship's entire track history